VA2B weather

Meerut Sw Airport
Uttar Pradesh, India

Public forecast

Using degrees Celsius for public forecast. Weather courtesy of forecast.io.

METAR (pilot weather report)

Report is more than 6 hours old.

Closest report is Safdarjung Airport, 31.4 nm (58.2 km) SW. Retrieved 2019/09/19 13:00 UTC (7 hours ago):

VIDD 191300Z 08003KT 3000 HZ SCT035 BKN100 31/25 Q1009 NOSIG

TAF (pilot weather forecast)

Closest forecast is Indira Gandhi International Airport, 36.4 nm (67.5 km) SW. Retrieved 2019/09/19 18:28 UTC (2 hours ago):

TAF VIDP 191700Z 1918/2024 12006KT 4000 HZ BR FEW040 SCT100 BECMG 2000/2002 2500 BR BECMG 2005/2007 4000 HZ SCT035 BKN090 BECMG 2008/2012 FEW040CB BECMG 2017/2019 2500 HZ BR BECMG 2021/2024 1500 TSRA FEW040CB OVC080